createdAt,value
2022-10-13T00:02:47.684Z,12.64
2022-10-13T00:03:47.245Z,12.64
2022-10-13T00:04:47.269Z,12.65
2022-10-13T00:05:47.636Z,12.65
2022-10-13T00:06:47.131Z,12.65
2022-10-13T00:07:47.054Z,12.65
2022-10-13T00:08:47.065Z,12.67
2022-10-13T00:09:47.134Z,12.68
2022-10-13T00:10:47.209Z,12.67
2022-10-13T00:11:47.153Z,12.65
2022-10-13T00:12:47.295Z,12.67
2022-10-13T00:13:47.133Z,12.65
2022-10-13T00:14:47.255Z,12.65
2022-10-13T00:15:50.240Z,12.65
2022-10-13T00:16:47.210Z,12.65
2022-10-13T00:17:47.000Z,12.67
2022-10-13T00:18:47.046Z,12.67
2022-10-13T00:19:47.014Z,12.67
2022-10-13T00:20:46.905Z,12.68
2022-10-13T00:21:47.172Z,12.67
2022-10-13T00:22:46.910Z,12.68
2022-10-13T00:23:46.972Z,12.68
2022-10-13T00:24:46.924Z,12.68
2022-10-13T00:25:46.935Z,12.68
2022-10-13T00:26:47.052Z,12.70
2022-10-13T00:27:46.763Z,12.72
2022-10-13T00:28:51.397Z,12.72
2022-10-13T00:29:46.742Z,12.73
2022-10-13T00:30:49.795Z,12.72
2022-10-13T00:31:46.906Z,12.73
2022-10-13T00:32:46.795Z,12.75
2022-10-13T00:33:46.770Z,12.76
2022-10-13T00:34:46.679Z,12.76
2022-10-13T00:35:46.748Z,12.78
2022-10-13T00:36:46.786Z,12.78
2022-10-13T00:37:46.720Z,12.76
2022-10-13T00:38:46.653Z,12.78
2022-10-13T00:39:46.788Z,12.75
2022-10-13T00:40:46.806Z,12.75
2022-10-13T01:30:03.458Z,12.55
2022-10-13T01:31:02.414Z,12.54
2022-10-13T01:32:02.066Z,12.54
2022-10-13T01:33:02.168Z,12.54
2022-10-13T01:34:02.007Z,12.53
2022-10-13T01:35:02.041Z,12.50
2022-10-13T01:36:02.074Z,12.47
2022-10-13T01:37:02.152Z,12.50
2022-10-13T01:38:02.142Z,12.49
2022-10-13T01:39:01.929Z,12.50
2022-10-13T01:40:01.815Z,12.53
2022-10-13T01:41:02.050Z,12.53
2022-10-13T01:42:01.877Z,12.53
2022-10-13T01:43:05.043Z,12.50
2022-10-13T01:44:03.626Z,12.50
2022-10-13T01:45:02.525Z,12.50
2022-10-13T01:46:02.304Z,12.50
2022-10-13T01:47:01.866Z,12.49
2022-10-13T01:48:01.962Z,12.49
2022-10-13T01:49:01.680Z,12.50
2022-10-13T01:50:01.675Z,12.53
2022-10-13T01:51:01.710Z,12.50
2022-10-13T01:52:01.786Z,12.49
2022-10-13T01:53:02.479Z,12.53
2022-10-13T01:54:01.678Z,12.53
2022-10-13T01:55:01.921Z,12.53
2022-10-13T01:56:01.899Z,12.53
2022-10-13T01:57:01.877Z,12.54
2022-10-13T01:58:04.899Z,12.50
2022-10-13T01:59:01.866Z,12.53
2022-10-13T02:00:01.693Z,12.53
2022-10-13T02:01:01.750Z,12.53
2022-10-13T02:02:01.815Z,12.53
2022-10-13T02:03:01.885Z,12.53
2022-10-13T02:04:01.630Z,12.53
2022-10-13T02:05:01.646Z,12.54
2022-10-13T02:06:01.632Z,12.54
2022-10-13T02:07:01.650Z,12.55
2022-10-13T02:08:01.650Z,12.57
2022-10-13T02:09:01.521Z,12.55
2022-10-13T02:10:01.662Z,12.57
2022-10-13T02:11:01.631Z,12.57
2022-10-13T02:12:01.804Z,12.57
2022-10-13T02:13:04.861Z,12.57
2022-10-13T02:14:02.320Z,12.58
2022-10-13T02:15:03.076Z,12.57
2022-10-13T02:16:01.944Z,12.55
2022-10-13T02:17:02.134Z,12.53
2022-10-13T02:18:04.091Z,12.55
2022-10-13T02:19:01.954Z,12.50
2022-10-13T02:20:01.773Z,12.54
2022-10-13T02:21:05.894Z,12.54
2022-10-13T02:22:23.240Z,12.55
2022-10-13T02:44:04.014Z,12.46
2022-10-13T02:45:03.354Z,12.43
2022-10-13T02:46:03.927Z,12.43
2022-10-13T02:47:05.517Z,12.43
2022-10-13T02:48:05.707Z,12.43
2022-10-13T02:49:04.720Z,12.43
2022-10-13T02:50:03.444Z,12.42
2022-10-13T02:51:02.973Z,12.40
2022-10-13T02:52:03.107Z,12.43
2022-10-13T02:53:03.333Z,12.43
2022-10-13T02:54:03.366Z,12.42
2022-10-13T02:55:03.131Z,12.42
2022-10-13T02:56:24.289Z,12.42
2022-10-13T02:57:07.942Z,12.42
2022-10-13T02:58:02.838Z,12.42
2022-10-13T02:59:02.940Z,12.42
2022-10-13T03:00:02.942Z,12.42
2022-10-13T03:01:03.006Z,12.43
2022-10-13T03:02:03.067Z,12.43
2022-10-13T03:03:02.763Z,12.43
2022-10-13T03:04:02.889Z,12.42
2022-10-13T03:05:04.414Z,12.45
2022-10-13T03:06:02.731Z,12.45
2022-10-13T03:07:02.885Z,12.43
2022-10-13T03:08:02.671Z,12.43
2022-10-13T03:09:02.666Z,12.40
2022-10-13T03:10:02.699Z,12.40
2022-10-13T03:11:02.601Z,12.42
2022-10-13T03:12:05.838Z,12.40
2022-10-13T03:13:02.902Z,12.43
2022-10-13T03:14:02.720Z,12.42
2022-10-13T03:15:02.645Z,12.42
2022-10-13T03:16:02.572Z,12.45
2022-10-13T03:17:02.631Z,12.45
2022-10-13T03:18:03.714Z,12.43
2022-10-13T03:19:02.563Z,12.43
2022-10-13T03:20:02.774Z,12.40
2022-10-13T03:21:02.777Z,12.42
2022-10-13T03:22:02.744Z,12.42
2022-10-13T03:23:02.683Z,12.40
2022-10-13T03:24:04.097Z,12.42
2022-10-13T03:25:02.537Z,12.39
2022-10-13T03:26:02.559Z,12.37
2022-10-13T03:27:05.506Z,12.37
2022-10-13T03:28:02.811Z,12.36
2022-10-13T03:29:02.479Z,12.36
2022-10-13T03:30:02.552Z,12.36
2022-10-13T03:31:02.536Z,12.36
2022-10-13T03:32:02.629Z,12.37
2022-10-13T03:33:02.452Z,12.37
2022-10-13T03:34:02.456Z,12.40
2022-10-13T03:35:02.485Z,12.42
2022-10-13T03:36:02.471Z,12.42
2022-10-13T03:43:46.010Z,12.45
2022-10-13T03:47:29.078Z,12.42
2022-10-13T03:48:28.886Z,12.39
2022-10-13T03:49:29.048Z,12.40
2022-10-13T03:50:28.842Z,12.40
2022-10-13T03:51:28.865Z,12.42
2022-10-13T03:52:28.795Z,12.42
2022-10-13T03:53:29.057Z,12.43
2022-10-13T03:54:28.851Z,12.43
2022-10-13T03:55:28.832Z,12.42
2022-10-13T03:56:28.799Z,12.42
2022-10-13T03:57:28.775Z,12.40
2022-10-13T03:58:28.840Z,12.40
2022-10-13T03:59:31.764Z,12.39
2022-10-13T04:00:31.839Z,12.39
2022-10-13T04:01:29.051Z,12.39
2022-10-13T04:02:28.852Z,12.37
2022-10-13T04:03:28.657Z,12.37
2022-10-13T04:04:28.693Z,12.37
2022-10-13T04:05:28.717Z,12.37
2022-10-13T04:06:28.705Z,12.39
2022-10-13T04:07:28.641Z,12.37
2022-10-13T04:08:28.777Z,12.37
2022-10-13T04:09:28.784Z,12.35
2022-10-13T04:10:28.791Z,12.32
2022-10-13T04:11:28.725Z,12.31
2022-10-13T04:12:28.761Z,12.29
2022-10-13T04:13:28.757Z,12.29
2022-10-13T04:14:28.754Z,12.31
2022-10-13T04:15:32.221Z,12.31
2022-10-13T04:16:28.701Z,12.31
2022-10-13T04:17:30.527Z,12.32
2022-10-13T05:25:40.194Z,12.21
2022-10-13T05:26:40.196Z,12.20
2022-10-13T08:04:57.911Z,14.94
2022-10-13T08:05:57.870Z,14.96
2022-10-13T08:06:57.861Z,14.94
2022-10-13T08:07:58.594Z,14.91
2022-10-13T08:08:57.855Z,14.88
2022-10-13T08:09:57.879Z,14.81
2022-10-13T08:10:57.780Z,14.81
2022-10-13T08:12:00.994Z,14.81
2022-10-13T08:12:57.812Z,14.79
2022-10-13T08:13:57.796Z,14.84
2022-10-13T08:14:59.421Z,14.84
2022-10-13T08:16:57.721Z,14.89
2022-10-13T08:18:00.737Z,14.88
2022-10-13T08:18:57.735Z,14.92
2022-10-13T08:19:57.709Z,14.94
2022-10-13T08:21:23.849Z,14.97
2022-10-13T08:21:59.845Z,14.97
2022-10-13T08:22:57.768Z,14.99
2022-10-13T08:23:57.625Z,15.02
2022-10-13T08:24:58.225Z,15.03
2022-10-13T08:25:57.643Z,15.07
2022-10-13T08:26:57.586Z,15.14
2022-10-13T08:28:00.473Z,15.22
2022-10-13T08:29:16.632Z,15.31
2022-10-13T08:29:58.655Z,15.42
2022-10-13T08:30:57.700Z,15.49
2022-10-13T08:31:57.573Z,15.42
2022-10-13T08:33:00.595Z,15.39
2022-10-13T08:33:57.567Z,15.31
2022-10-13T08:34:57.519Z,15.31
2022-10-13T08:35:57.507Z,15.37
2022-10-13T08:36:57.585Z,15.46
2022-10-13T08:37:57.491Z,15.57
2022-10-13T08:38:57.497Z,15.70
2022-10-13T08:39:57.486Z,15.80
2022-10-13T08:40:57.499Z,15.94
2022-10-13T08:48:04.454Z,16.02
2022-10-13T08:49:04.292Z,16.10
2022-10-13T08:50:04.279Z,16.13
2022-10-13T08:51:04.236Z,16.26
2022-10-13T08:52:04.245Z,16.36
2022-10-13T08:53:04.257Z,16.41
2022-10-13T09:02:33.223Z,16.65
2022-10-13T09:03:33.147Z,16.65
2022-10-13T09:04:33.141Z,16.65
2022-10-13T09:05:33.099Z,16.61
2022-10-13T09:06:33.094Z,16.60
2022-10-13T09:07:33.076Z,16.58
2022-10-13T09:08:33.137Z,16.60
2022-10-13T09:09:33.056Z,16.60
2022-10-13T09:10:33.110Z,16.56
2022-10-13T09:11:33.051Z,16.58
2022-10-13T09:12:33.039Z,16.57
2022-10-13T09:13:33.066Z,16.60
2022-10-13T09:14:33.060Z,16.54
2022-10-13T09:15:35.990Z,16.49
2022-10-13T09:16:33.013Z,16.46
2022-10-13T09:17:32.980Z,16.43
2022-10-13T09:18:33.089Z,16.50
2022-10-13T09:19:32.971Z,16.56
2022-10-13T09:20:32.979Z,16.61
2022-10-13T09:21:32.942Z,16.66
2022-10-13T09:22:32.912Z,16.66
2022-10-13T09:23:32.921Z,16.64
2022-10-13T09:24:32.932Z,16.64
2022-10-13T09:25:32.950Z,16.60
2022-10-13T09:26:32.878Z,16.57
2022-10-13T09:27:32.890Z,16.56
2022-10-13T09:28:32.907Z,16.50
2022-10-13T09:29:32.867Z,16.42
2022-10-13T09:30:35.830Z,16.31
2022-10-13T09:31:32.886Z,16.23
2022-10-13T09:32:32.820Z,16.16
2022-10-13T09:33:32.834Z,16.09
2022-10-13T09:34:32.840Z,16.05
2022-10-13T09:35:32.788Z,16.05
2022-10-13T09:36:32.807Z,16.08
2022-10-13T09:37:32.787Z,16.05
2022-10-13T09:38:32.828Z,16.05
2022-10-13T09:39:32.813Z,16.05
2022-10-13T09:40:32.742Z,16.05
2022-10-13T09:41:32.736Z,16.08
2022-10-13T09:42:32.924Z,16.09
2022-10-13T09:43:32.716Z,16.08
2022-10-13T09:44:32.717Z,16.09
2022-10-13T09:45:35.727Z,16.13
2022-10-13T09:46:32.689Z,16.16
2022-10-13T09:47:32.658Z,16.20
2022-10-13T09:48:32.689Z,16.24
2022-10-13T09:49:32.678Z,16.29
2022-10-13T09:50:33.476Z,16.32
2022-10-13T09:51:33.476Z,16.36
2022-10-13T09:52:32.621Z,16.46
2022-10-13T09:53:32.632Z,16.46
2022-10-13T09:54:32.575Z,16.38
2022-10-13T09:55:33.021Z,16.41
2022-10-13T10:04:28.808Z,16.54
2022-10-13T10:05:28.655Z,16.57
2022-10-13T10:06:28.648Z,16.65
2022-10-13T10:07:28.719Z,16.71
2022-10-13T10:08:33.825Z,16.69
2022-10-13T10:09:29.621Z,16.75
2022-10-13T10:10:28.552Z,16.75
2022-10-13T10:11:28.654Z,16.79
2022-10-13T10:12:28.552Z,16.83
2022-10-13T10:13:28.554Z,16.89
2022-10-13T10:14:28.555Z,16.97
2022-10-13T10:15:28.530Z,17.01
2022-10-13T10:16:28.526Z,17.02
2022-10-13T10:17:31.496Z,17.05
2022-10-13T10:18:28.516Z,17.06
2022-10-13T10:19:28.480Z,17.01
2022-10-13T10:20:28.535Z,16.87
2022-10-13T10:21:28.457Z,16.84
2022-10-13T10:22:28.445Z,16.87
2022-10-13T10:23:28.437Z,16.94
2022-10-13T10:24:28.431Z,17.11
2022-10-13T10:25:28.452Z,17.23
2022-10-13T10:26:32.565Z,17.31
2022-10-13T10:27:28.455Z,17.33
2022-10-13T10:28:28.406Z,17.33
2022-10-13T10:29:28.420Z,17.39
2022-10-13T10:30:28.349Z,17.42
2022-10-13T10:32:31.366Z,17.33
2022-10-13T10:33:28.361Z,17.29
2022-10-13T10:34:28.314Z,17.30
2022-10-13T10:35:28.403Z,17.30
2022-10-13T10:36:28.303Z,17.29
2022-10-13T10:37:28.288Z,17.27
2022-10-13T10:38:28.326Z,17.29
2022-10-13T10:39:28.463Z,17.29
2022-10-13T10:40:28.441Z,17.27
2022-10-13T10:41:28.323Z,17.29
2022-10-13T10:42:28.225Z,17.38
2022-10-13T10:43:28.227Z,17.41
2022-10-13T10:44:28.222Z,17.44
2022-10-13T10:45:28.190Z,17.51
2022-10-13T10:46:28.232Z,17.45
2022-10-13T10:47:31.257Z,17.45
2022-10-13T10:48:28.721Z,17.36
2022-10-13T10:49:28.410Z,17.30
2022-10-13T10:50:28.205Z,17.26
2022-10-13T10:51:28.205Z,17.22
2022-10-13T10:52:28.232Z,17.22
2022-10-13T10:53:28.121Z,17.23
2022-10-13T10:54:28.701Z,17.23
2022-10-13T10:55:28.101Z,17.30
2022-10-13T10:56:28.160Z,17.34
2022-10-13T10:57:28.099Z,17.39
2022-10-13T10:58:28.093Z,17.46
2022-10-13T10:59:28.098Z,17.52
2022-10-13T11:01:28.308Z,17.52
2022-10-13T11:02:31.199Z,17.54
2022-10-13T11:03:28.031Z,17.56
2022-10-13T11:04:28.173Z,17.63
2022-10-13T11:05:28.013Z,17.67
2022-10-13T11:06:28.119Z,17.72
2022-10-13T11:07:30.285Z,17.74
2022-10-13T11:08:27.975Z,17.68
2022-10-13T11:09:27.996Z,17.64
2022-10-13T11:10:27.942Z,17.54
2022-10-13T11:11:30.153Z,17.45
2022-10-13T11:12:28.239Z,17.45
2022-10-13T11:13:27.966Z,17.45
2022-10-13T11:14:27.908Z,17.44
2022-10-13T11:15:28.134Z,17.42
2022-10-13T11:16:27.887Z,17.42
2022-10-13T11:17:31.889Z,17.38
2022-10-13T11:18:28.608Z,17.42
2022-10-13T11:19:27.833Z,17.44
2022-10-13T11:20:27.856Z,17.45
2022-10-13T11:21:27.848Z,17.46
2022-10-13T11:22:27.816Z,17.44
2022-10-13T11:23:27.878Z,17.44
2022-10-13T11:24:28.441Z,17.38
2022-10-13T11:25:27.775Z,17.33
2022-10-13T11:28:06.532Z,17.30
2022-10-13T11:29:06.595Z,17.31
2022-10-13T11:30:06.482Z,17.41
2022-10-13T11:31:06.482Z,17.51
2022-10-13T11:32:06.425Z,17.56
2022-10-13T11:33:06.474Z,17.64
2022-10-13T11:34:06.389Z,17.60
2022-10-13T11:35:06.491Z,17.54
2022-10-13T11:36:06.406Z,17.51
2022-10-13T11:37:06.385Z,17.51
2022-10-13T11:38:07.749Z,17.49
2022-10-13T11:39:06.694Z,17.42
2022-10-13T11:40:06.333Z,17.38
2022-10-13T11:41:09.380Z,17.44
2022-10-13T11:42:06.329Z,17.49
2022-10-13T11:43:08.204Z,17.54
2022-10-13T11:44:06.289Z,17.52
2022-10-13T11:45:06.507Z,17.51
2022-10-13T11:46:06.421Z,17.51
2022-10-13T11:47:07.097Z,17.45
2022-10-13T11:49:06.240Z,17.45
2022-10-13T11:50:06.236Z,17.45
2022-10-13T11:51:06.289Z,17.46
2022-10-13T11:52:06.220Z,17.48
2022-10-13T11:53:06.210Z,17.41
2022-10-13T11:54:06.284Z,17.34
2022-10-13T11:55:06.230Z,17.33
2022-10-13T11:56:09.190Z,17.33
2022-10-13T11:57:06.189Z,17.34
2022-10-13T11:58:06.357Z,17.41
2022-10-13T11:59:06.147Z,17.46
2022-10-13T12:00:06.245Z,17.51
2022-10-13T12:01:06.116Z,17.57
2022-10-13T12:02:06.103Z,17.64
2022-10-13T12:03:06.283Z,17.67
2022-10-13T12:04:06.161Z,17.67
2022-10-13T12:05:06.094Z,17.57
2022-10-13T12:06:06.076Z,17.56
2022-10-13T12:07:06.080Z,17.54
2022-10-13T12:08:06.095Z,17.60
2022-10-13T12:09:06.036Z,17.67
2022-10-13T12:10:07.499Z,17.85
2022-10-13T12:11:09.049Z,18.01
2022-10-13T12:12:06.056Z,18.16
2022-10-13T12:13:06.023Z,18.13
2022-10-13T12:14:06.109Z,18.23
2022-10-13T12:15:07.102Z,18.37
2022-10-13T12:21:11.472Z,18.31
2022-10-13T12:22:11.339Z,18.31
2022-10-13T12:23:11.680Z,18.33
2022-10-13T12:24:11.581Z,18.35
2022-10-13T12:25:11.330Z,18.35
2022-10-13T12:26:11.350Z,18.25
2022-10-13T12:27:15.070Z,18.25
2022-10-13T12:44:36.242Z,18.28
2022-10-13T12:45:34.361Z,18.25
2022-10-13T12:46:34.663Z,18.22
2022-10-13T12:56:02.753Z,18.25
2022-10-13T12:57:02.692Z,18.18
2022-10-13T12:58:02.724Z,18.13
2022-10-13T12:59:02.827Z,18.08
2022-10-13T13:06:42.196Z,18.04
2022-10-13T13:15:07.720Z,18.13
2022-10-13T13:16:07.667Z,18.13
2022-10-13T13:17:07.671Z,18.23
2022-10-13T13:18:07.684Z,18.28
2022-10-13T13:19:07.652Z,18.26
2022-10-13T13:20:07.655Z,18.22
2022-10-13T13:22:07.595Z,18.19
2022-10-13T13:23:07.591Z,18.19
2022-10-13T13:24:21.932Z,18.16
2022-10-13T13:25:08.576Z,18.19
2022-10-13T13:26:07.587Z,18.18
2022-10-13T13:27:07.567Z,18.20
2022-10-13T13:28:10.665Z,18.22
2022-10-13T13:29:07.962Z,18.25
2022-10-13T13:30:07.518Z,18.28
2022-10-13T13:31:07.560Z,18.22
2022-10-13T13:32:07.494Z,18.20
2022-10-13T13:33:07.565Z,18.22
2022-10-13T13:34:07.465Z,18.23
2022-10-13T13:35:09.109Z,18.26
2022-10-13T13:36:07.501Z,18.31
2022-10-13T13:37:07.483Z,18.33
2022-10-13T13:38:07.470Z,18.25
2022-10-13T13:45:00.694Z,18.15
2022-10-13T13:46:00.809Z,18.18
2022-10-13T13:47:00.612Z,18.19
2022-10-13T13:48:01.086Z,18.20
2022-10-13T13:49:00.574Z,18.19
2022-10-13T13:50:00.624Z,18.10
2022-10-13T13:51:00.550Z,18.03
2022-10-13T13:52:00.550Z,18.00
2022-10-13T13:53:00.551Z,18.01
2022-10-13T13:54:00.542Z,18.00
2022-10-13T13:55:00.505Z,18.01
2022-10-13T13:56:00.503Z,18.03
2022-10-13T13:57:00.487Z,18.03
2022-10-13T13:58:03.449Z,18.05
2022-10-13T14:02:32.094Z,18.15
2022-10-13T14:03:32.105Z,18.13
2022-10-13T14:04:32.097Z,18.15
2022-10-13T14:05:32.044Z,18.10
2022-10-13T14:06:32.068Z,18.11
2022-10-13T14:07:31.993Z,18.11
2022-10-13T14:08:32.090Z,18.11
2022-10-13T14:09:31.981Z,18.13
2022-10-13T14:10:31.960Z,18.11
2022-10-13T14:11:32.032Z,18.11
2022-10-13T14:12:32.011Z,18.13
2022-10-13T14:15:11.236Z,18.19
2022-10-13T14:16:11.111Z,18.22
2022-10-13T14:17:11.105Z,18.26
2022-10-13T14:18:11.106Z,18.28
2022-10-13T14:19:11.118Z,18.29
2022-10-13T14:20:11.104Z,18.33
2022-10-13T14:21:11.082Z,18.34
2022-10-13T14:22:11.057Z,18.33
2022-10-13T14:23:11.055Z,18.33
2022-10-13T14:24:11.032Z,18.29
2022-10-13T14:25:11.134Z,18.25
2022-10-13T14:26:11.304Z,18.22
2022-10-13T14:27:11.052Z,18.16
2022-10-13T14:28:18.036Z,18.10
2022-10-13T14:29:10.981Z,18.08
2022-10-13T14:30:10.998Z,18.01
2022-10-13T14:31:10.975Z,17.95
2022-10-13T14:32:11.522Z,17.86
2022-10-13T14:33:11.012Z,17.80
2022-10-13T14:34:10.990Z,17.78
2022-10-13T14:35:11.614Z,17.72
2022-10-13T14:36:10.935Z,17.67
2022-10-13T14:37:11.050Z,17.64
2022-10-13T14:38:10.920Z,17.67
2022-10-13T14:39:10.888Z,17.65
2022-10-13T14:40:10.858Z,17.64
2022-10-13T14:41:10.848Z,17.63
2022-10-13T14:42:10.844Z,17.57
2022-10-13T14:43:14.412Z,17.57
2022-10-13T14:44:10.898Z,17.54
2022-10-13T14:45:10.811Z,17.52
2022-10-13T14:46:10.789Z,17.51
2022-10-13T14:47:10.812Z,17.48
2022-10-13T14:48:10.825Z,17.46
2022-10-13T14:49:10.813Z,17.44
2022-10-13T14:50:10.820Z,17.42
2022-10-13T14:51:10.761Z,17.39
2022-10-13T14:52:10.722Z,17.38
2022-10-13T14:53:10.776Z,17.38
2022-10-13T14:54:10.761Z,17.36
2022-10-13T14:55:10.763Z,17.31
2022-10-13T14:56:10.882Z,17.30
2022-10-13T14:57:10.674Z,17.31
2022-10-13T14:58:13.685Z,17.31
2022-10-13T14:59:10.718Z,17.29
2022-10-13T15:00:10.715Z,17.27
2022-10-13T15:01:10.629Z,17.24
2022-10-13T15:02:10.838Z,17.20
2022-10-13T15:03:10.729Z,17.15
2022-10-13T15:04:10.712Z,17.15
2022-10-13T15:05:10.618Z,17.14
2022-10-13T15:06:10.618Z,17.15
2022-10-13T15:07:10.648Z,17.14
2022-10-13T15:08:10.573Z,17.12
2022-10-13T15:09:10.784Z,17.08
2022-10-13T15:10:10.563Z,17.05
2022-10-13T15:11:10.564Z,17.04
2022-10-13T15:12:10.586Z,17.02
2022-10-13T15:13:13.895Z,16.97
2022-10-13T15:14:10.558Z,16.93
2022-10-13T15:15:10.495Z,16.90
2022-10-13T15:16:10.492Z,16.87
2022-10-13T15:17:10.512Z,16.83
2022-10-13T15:18:10.520Z,16.83
2022-10-13T15:19:10.453Z,16.81
2022-10-13T15:20:10.767Z,16.76
2022-10-13T15:21:10.455Z,16.75
2022-10-13T15:22:10.445Z,16.72
2022-10-13T15:23:10.476Z,16.71
2022-10-13T15:24:10.397Z,16.69
2022-10-13T15:25:10.410Z,16.69
2022-10-13T15:26:10.363Z,16.69
2022-10-13T15:27:10.439Z,16.71
2022-10-13T15:28:13.453Z,16.71
2022-10-13T15:29:10.366Z,16.69
2022-10-13T15:30:10.371Z,16.65
2022-10-13T15:31:10.373Z,16.64
2022-10-13T15:32:10.574Z,16.58
2022-10-13T15:33:10.302Z,16.54
2022-10-13T15:34:10.384Z,16.51
2022-10-13T15:35:10.285Z,16.49
2022-10-13T15:36:10.295Z,16.47
2022-10-13T15:37:10.306Z,16.43
2022-10-13T15:38:10.326Z,16.42
2022-10-13T15:39:10.257Z,16.42
2022-10-13T15:40:10.267Z,16.39
2022-10-13T15:41:10.237Z,16.36
2022-10-13T15:42:10.233Z,16.35
2022-10-13T15:43:20.339Z,16.33
2022-10-13T15:44:10.207Z,16.35
2022-10-13T15:45:11.444Z,16.35
2022-10-13T15:46:10.167Z,16.36
2022-10-13T15:47:14.954Z,16.36
2022-10-13T15:48:10.144Z,16.35
2022-10-13T15:49:10.139Z,16.33
2022-10-13T15:50:10.211Z,16.32
2022-10-13T15:51:10.106Z,16.31
2022-10-13T15:52:10.161Z,16.32
2022-10-13T15:53:10.204Z,16.28
2022-10-13T15:54:10.079Z,16.26
2022-10-13T15:55:10.071Z,16.26
2022-10-13T15:56:10.068Z,16.24
2022-10-13T15:57:10.037Z,16.26
2022-10-13T15:58:13.961Z,16.23
2022-10-13T15:59:10.044Z,16.17
2022-10-13T16:00:10.153Z,16.16
2022-10-13T16:01:10.119Z,16.16
2022-10-13T16:02:10.001Z,16.13
2022-10-13T16:03:09.985Z,16.16
2022-10-13T16:04:09.986Z,16.13
2022-10-13T16:05:10.014Z,16.12
2022-10-13T16:06:09.951Z,16.09
2022-10-13T16:07:09.982Z,16.05
2022-10-13T16:08:09.947Z,16.02
2022-10-13T16:09:09.931Z,16.01
2022-10-13T16:10:09.913Z,16.00
2022-10-13T16:11:09.902Z,15.98
2022-10-13T16:12:09.937Z,15.97
2022-10-13T16:13:12.877Z,15.94
2022-10-13T16:14:09.875Z,15.95
2022-10-13T16:15:09.875Z,15.95
2022-10-13T16:16:09.852Z,15.92
2022-10-13T16:17:09.842Z,15.94
2022-10-13T16:18:09.820Z,15.92
2022-10-13T16:19:09.815Z,15.92
2022-10-13T16:20:09.816Z,15.92
2022-10-13T16:21:11.483Z,15.90
2022-10-13T16:22:09.817Z,15.88
2022-10-13T16:23:09.807Z,15.88
2022-10-13T16:24:09.774Z,15.86
2022-10-13T16:25:09.757Z,15.91
2022-10-13T16:26:09.746Z,15.91
2022-10-13T16:27:09.769Z,15.92
2022-10-13T16:28:12.760Z,15.92
2022-10-13T16:29:09.729Z,15.94
2022-10-13T16:30:09.696Z,15.97
2022-10-13T16:31:09.698Z,16.00
2022-10-13T16:32:09.723Z,16.01
2022-10-13T16:33:09.671Z,16.01
2022-10-13T16:34:09.661Z,16.02
2022-10-13T16:35:09.680Z,16.00
2022-10-13T16:36:09.666Z,16.00
2022-10-13T16:37:09.633Z,15.97
2022-10-13T16:38:09.623Z,15.94
2022-10-13T16:39:09.612Z,15.91
2022-10-13T16:40:09.613Z,15.90
2022-10-13T16:41:09.593Z,15.83
2022-10-13T16:42:09.580Z,15.82
2022-10-13T16:43:12.575Z,15.79
2022-10-13T16:44:09.565Z,15.76
2022-10-13T16:45:09.543Z,15.73
2022-10-13T16:46:09.574Z,15.70
2022-10-13T16:47:09.527Z,15.68
2022-10-13T16:48:09.515Z,15.62
2022-10-13T16:49:09.504Z,15.62
2022-10-13T16:50:09.501Z,15.61
2022-10-13T16:51:09.480Z,15.59
2022-10-13T16:52:09.492Z,15.58
2022-10-13T16:53:09.466Z,15.58
2022-10-13T16:54:09.459Z,15.55
2022-10-13T16:55:09.448Z,15.55
2022-10-13T16:56:09.440Z,15.55
2022-10-13T16:57:09.426Z,15.52
2022-10-13T16:58:12.411Z,15.49
2022-10-13T16:59:09.418Z,15.47
2022-10-13T17:00:09.407Z,15.44
2022-10-13T17:01:09.441Z,15.43
2022-10-13T17:02:09.386Z,15.39
2022-10-13T17:03:09.379Z,15.37
2022-10-13T17:04:09.462Z,15.37
2022-10-13T17:05:09.402Z,15.35
2022-10-13T17:06:09.332Z,15.35
2022-10-13T17:07:09.329Z,15.33
2022-10-13T17:08:09.323Z,15.33
2022-10-13T17:09:09.372Z,15.31
2022-10-13T17:10:09.442Z,15.33
2022-10-13T17:11:09.341Z,15.29
2022-10-13T17:12:09.314Z,15.28
2022-10-13T17:13:12.313Z,15.27
2022-10-13T17:14:09.353Z,15.24
2022-10-13T17:15:09.294Z,15.19
2022-10-13T17:16:09.275Z,15.19
2022-10-13T17:17:09.284Z,15.17
2022-10-13T17:18:09.260Z,15.18
2022-10-13T17:19:09.346Z,15.15
2022-10-13T17:20:09.237Z,15.17
2022-10-13T17:21:09.233Z,15.14
2022-10-13T17:22:09.228Z,15.11
2022-10-13T17:23:09.216Z,15.11
2022-10-13T17:24:09.218Z,15.15
2022-10-13T17:25:09.202Z,15.14
2022-10-13T17:26:09.178Z,15.14
2022-10-13T17:27:09.167Z,15.14
2022-10-13T17:28:12.157Z,15.14
2022-10-13T17:29:09.170Z,15.15
2022-10-13T17:30:09.160Z,15.15
2022-10-13T17:31:09.129Z,15.10
2022-10-13T17:32:09.148Z,15.10
2022-10-13T17:33:09.106Z,15.06
2022-10-13T17:34:09.091Z,15.03
2022-10-13T17:35:09.080Z,15.02
2022-10-13T17:36:09.071Z,15.02
2022-10-13T17:37:09.085Z,15.02
2022-10-13T17:38:09.052Z,15.02
2022-10-13T17:39:09.043Z,15.02
2022-10-13T17:40:09.032Z,15.04
2022-10-13T17:41:09.015Z,15.04
2022-10-13T17:42:09.116Z,15.06
2022-10-13T17:43:12.006Z,15.04
2022-10-13T17:44:09.044Z,15.06
2022-10-13T17:45:08.983Z,15.04
2022-10-13T17:46:34.348Z,15.04
2022-10-13T17:47:09.970Z,15.04
2022-10-13T17:48:08.948Z,15.02
2022-10-13T17:49:08.936Z,14.97
2022-10-13T17:50:08.923Z,14.96
2022-10-13T17:51:08.919Z,14.89
2022-10-13T17:52:08.911Z,14.86
2022-10-13T17:53:08.897Z,14.84
2022-10-13T17:54:13.066Z,14.85
2022-10-13T17:55:08.881Z,14.84
2022-10-13T17:56:08.867Z,14.84
2022-10-13T17:57:08.857Z,14.85
2022-10-13T17:58:11.839Z,14.85
2022-10-13T17:59:08.848Z,14.84
2022-10-13T18:00:08.816Z,14.82
2022-10-13T18:01:13.281Z,14.81
2022-10-13T18:02:08.872Z,14.81
2022-10-13T18:03:08.801Z,14.79
2022-10-13T18:04:08.830Z,14.72
2022-10-13T18:05:08.767Z,14.69
2022-10-13T18:06:08.762Z,14.65
2022-10-13T18:07:08.753Z,14.62
2022-10-13T18:08:08.739Z,14.58
2022-10-13T18:09:08.734Z,14.55
2022-10-13T18:10:08.740Z,14.51
2022-10-13T18:11:08.985Z,14.50
2022-10-13T18:12:08.713Z,14.48
2022-10-13T18:13:11.683Z,14.50
2022-10-13T18:14:08.704Z,14.50
2022-10-13T18:15:08.822Z,14.51
2022-10-13T18:16:08.651Z,14.51
2022-10-13T18:17:08.773Z,14.50
2022-10-13T18:18:08.625Z,14.51
2022-10-13T18:19:08.625Z,14.50
2022-10-13T18:20:08.634Z,14.51
2022-10-13T18:21:08.604Z,14.51
2022-10-13T18:22:08.597Z,14.53
2022-10-13T18:23:08.586Z,14.51
2022-10-13T18:24:08.580Z,14.53
2022-10-13T18:25:08.600Z,14.53
2022-10-13T18:26:08.559Z,14.53
2022-10-13T18:27:08.630Z,14.50
2022-10-13T18:28:11.533Z,14.50
2022-10-13T18:29:08.528Z,14.47
2022-10-13T18:30:09.982Z,14.47
2022-10-13T18:31:08.511Z,14.45
2022-10-13T18:32:08.493Z,14.44
2022-10-13T18:33:08.469Z,14.40
2022-10-13T18:34:08.458Z,14.41
2022-10-13T18:35:08.480Z,14.40
2022-10-13T18:36:08.456Z,14.37
2022-10-13T18:37:08.437Z,14.36
2022-10-13T18:38:08.426Z,14.35
2022-10-13T18:39:08.418Z,14.35
2022-10-13T18:40:08.402Z,14.35
2022-10-13T18:41:08.397Z,14.33
2022-10-13T18:42:08.381Z,14.33
2022-10-13T18:43:11.381Z,14.35
2022-10-13T18:44:08.381Z,14.33
2022-10-13T18:45:08.363Z,14.35
2022-10-13T18:46:08.367Z,14.36
2022-10-13T18:47:08.350Z,14.37
2022-10-13T18:48:08.313Z,14.40
2022-10-13T18:49:08.313Z,14.41
2022-10-13T18:50:08.305Z,14.41
2022-10-13T18:51:08.296Z,14.40
2022-10-13T18:52:08.274Z,14.37
2022-10-13T18:53:08.271Z,14.40
2022-10-13T18:54:08.261Z,14.40
2022-10-13T18:55:08.243Z,14.36
2022-10-13T18:56:08.245Z,14.36
2022-10-13T18:57:08.239Z,14.35
2022-10-13T18:58:11.254Z,14.35
2022-10-13T18:59:08.226Z,14.36
2022-10-13T19:00:08.224Z,14.35
2022-10-13T19:01:08.282Z,14.33
2022-10-13T19:02:08.207Z,14.33
2022-10-13T19:03:08.159Z,14.33
2022-10-13T19:04:08.148Z,14.35
2022-10-13T19:05:08.150Z,14.32
2022-10-13T19:06:08.138Z,14.33
2022-10-13T19:07:08.121Z,14.32
2022-10-13T19:08:08.113Z,14.32
2022-10-13T19:09:08.138Z,14.32
2022-10-13T19:10:08.094Z,14.30
2022-10-13T19:11:08.083Z,14.30
2022-10-13T19:12:08.073Z,14.28
2022-10-13T19:13:11.059Z,14.26
2022-10-13T19:14:08.062Z,14.25
2022-10-13T19:15:08.044Z,14.25
2022-10-13T19:16:08.032Z,14.25
2022-10-13T19:17:08.028Z,14.23
2022-10-13T19:18:08.013Z,14.20
2022-10-13T19:19:08.023Z,14.22
2022-10-13T19:20:08.015Z,14.20
2022-10-13T19:21:07.995Z,14.20
2022-10-13T19:22:07.970Z,14.18